Latest Coastal Weather Observations for Darwin Airport

IDD60701

Issued at 2:21 pm CST Thursday 30 June 2016 (issued every 10 minutes, with the page automatically refreshed every 10 minutes)

About coastal observations | Map of coastal stations | Coastal observations for NT | Marine services | Other Formats
Station Details ID: 014015 Name: DARWIN AIRPORT Lat: -12.42 Lon: 130.89 Height: 30.4 m
Data from the previous 72 hours. | See also: Recent months at Darwin Airport
Date/Time
CST
Temp
°C
Wind Pressure Rain since
9am
mm
Weather Cloud Vis
km
Sea
Height
m
Swell
Dir  Spd
kts
Gust
kts
hPa Trend Height
m
Period
s
Dir
30/02:00pm 31.8 ESE 9 16 1012.8 - 0.0 - - 10 - - - -
30/01:30pm 31.3 E 11 17 1013.3 - 0.0 - Partly cloudy 10 - - - -
30/01:00pm 31.5 SE 12 16 1014.0 - 0.0 - - 10 - - - -
30/12:30pm 30.9 ESE 9 18 1014.6 - 0.0 - - 10 - - - -
30/12:00pm 30.3 E 9 14 1015.0 F 0.0 Fine Mostly clear 30 - - - -
30/11:30am 30.1 E 11 16 1015.4 - 0.0 - - 10 - - - -
30/11:00am 29.8 ESE 13 17 1015.8 - 0.0 - - 10 - - - -
30/10:30am 28.7 ESE 12 16 1016.2 - 0.0 - - 10 - - - -
30/10:00am 27.5 E 13 16 1016.5 - 0.0 - - 10 - - - -
30/09:30am 26.8 E 14 16 1016.5 - 0.0 - - 10 - - - -
30/09:00am 26.2 E 14 17 1016.4 S 0.0 Smoke Clear 25 - - - -
30/08:30am 25.1 E 12 16 1016.2 - 0.0 - - 10 - - - -
30/08:00am 23.9 E 7 9 1015.7 - 0.0 - - 10 - - - -
30/07:30am 22.5 ESE 7 9 1015.5 - 0.0 - - 10 - - - -
30/07:00am 21.8 SE 8 10 1015.1 - 0.0 - - 10 - - - -
30/06:30am 22.1 SE 7 9 1015.1 - 0.0 - - 10 - - - -
30/06:00am 22.4 SE 7 9 1014.9 F 0.0 Smoke Clear 25 - - - -
30/05:30am 22.5 SE 9 10 1014.7 - 0.0 - - 10 - - - -
30/05:00am 22.7 SSE 7 9 1014.5 - 0.0 - - 10 - - - -
30/04:30am 22.2 SSE 7 9 1014.3 - 0.0 - - 10 - - - -
30/04:00am 22.7 SSE 6 7 1014.4 - 0.0 - - 10 - - - -
30/03:30am 22.8 SSE 5 6 1014.4 - 0.0 - - 10 - - - -
30/03:00am 23.7 SSE 5 6 1014.8 F 0.0 - - 10 - - - -
30/02:30am 24.0 S 5 6 1015.0 - 0.0 - - 10 - - - -
30/02:00am 24.3 S 7 8 1015.1 - 0.0 - - 10 - - - -
30/01:30am 24.5 SSE 5 6 1015.4 - 0.0 - Partly cloudy 10 - - - -
30/01:00am 24.7 S 5 6 1015.5 - 0.0 - - 10 - - - -
30/12:30am 24.6 S 7 8 1015.5 - 0.0 - Partly cloudy 10 - - - -
30/12:00am 24.7 S 7 9 1015.7 R 0.0 Fine Mostly clear 30 - - - -
 
Date/Time
CST
Temp
°C
Wind Pressure Rain since
9am
mm
Weather Cloud Vis
km
Sea
Height
m
Swell
Dir  Spd
kts
Gust
kts
hPa Trend Height
m
Period
s
Dir
29/11:30pm 25.1 S 8 12 1015.6 - 0.0 - - 10 - - - -
29/11:00pm 23.9 E 5 6 1015.3 - 0.0 - - 10 - - - -
29/10:30pm 24.2 NE 5 6 1015.2 - 0.0 - - 10 - - - -
29/10:00pm 24.4 ENE 5 5 1015.2 - 0.0 - - 10 - - - -
29/09:30pm 24.2 ENE 4 5 1015.1 - 0.0 - - 10 - - - -
29/09:00pm 24.7 ENE 5 6 1014.9 R 0.0 Fine Clear 30 - - - -
29/08:30pm 25.2 NE 6 7 1014.6 - 0.0 - - 10 - - - -
29/08:00pm 25.8 NE 7 9 1014.3 - 0.0 - - 10 - - - -
29/07:30pm 26.3 NE 9 12 1013.9 - 0.0 - - 10 - - - -
29/07:00pm 27.0 NNE 9 11 1013.4 - 0.0 - - 10 - - - -
29/06:30pm 27.7 NNE 9 12 1013.0 - 0.0 - - 10 - - - -
29/06:00pm 28.6 NNE 9 13 1012.5 R 0.0 Fine Clear 30 - - - -
29/05:30pm 29.5 NNE 12 17 1012.3 - 0.0 - - 10 - - - -
29/05:00pm 30.1 N 12 16 1011.9 - 0.0 - - 10 - - - -
29/04:30pm 32.1 N 11 17 1011.7 - 0.0 - - 10 - - - -
29/04:00pm 32.4 ENE 11 17 1011.5 - 0.0 - - 10 - - - -
29/03:30pm 32.3 E 9 14 1011.7 - 0.0 - - 10 - - - -
29/03:00pm 32.7 ESE 12 17 1011.9 F 0.0 Fine Mostly clear 30 - - - -
29/02:30pm 32.1 E 15 20 1012.2 - 0.0 - - 10 - - - -
29/02:00pm 31.7 E 13 18 1012.6 - 0.0 - - 10 - - - -
29/01:30pm 31.9 ENE 14 22 1013.2 - 0.0 - - 10 - - - -
29/01:07pm 31.3 ENE 15 29 1013.8 - 0.0 - - 10 - - - -
29/01:00pm 31.3 E 15 21 1014.1 - 0.0 - - 10 - - - -
29/12:30pm 30.8 E 14 19 1014.6 - 0.0 - - 10 - - - -
29/12:00pm 30.6 E 15 20 1015.2 F 0.0 Fine Mostly clear 30 - - - -
29/11:30am 29.5 ESE 15 20 1015.7 - 0.0 - - 10 - - - -
29/11:00am 28.1 ESE 15 18 1016.0 - 0.0 - - 10 - - - -
29/10:30am 26.6 ESE 16 19 1016.2 - 0.0 - - 10 - - - -
29/10:00am 26.3 ESE 18 24 1016.6 - 0.0 - - 10 - - - -
29/09:30am 25.6 ESE 15 22 1016.7 - 0.0 - - 10 - - - -
29/09:00am 25.1 ESE 16 22 1016.7 F 0.0 Fine Clear 30 - - - -
29/08:30am 24.4 ESE 15 19 1016.6 - 0.0 - - 10 - - - -
29/08:00am 23.5 ESE 13 16 1016.4 - 0.0 - - 10 - - - -
29/07:30am 22.8 E 10 12 1016.1 - 0.0 - - 10 - - - -
29/07:00am 22.8 E 9 11 1015.9 - 0.0 - - 10 - - - -
29/06:30am 23.0 E 10 12 1015.5 - 0.0 - - 10 - - - -
29/06:00am 23.3 E 10 13 1015.3 R 0.0 Fine Clear 30 - - - -
29/05:30am 23.5 E 11 14 1015.0 - 0.0 - - 10 - - - -
29/05:00am 23.8 E 12 15 1014.8 - 0.0 - - 10 - - - -
29/04:30am 24.2 E 12 15 1014.6 - 0.0 - - 10 - - - -
29/04:00am 24.3 E 13 17 1014.8 - 0.0 - - 10 - - - -
29/03:30am 24.7 E 15 20 1014.7 - 0.0 - - 10 - - - -
29/03:00am 25.0 E 15 19 1014.8 R 0.0 - - 10 - - - -
29/02:30am 25.5 ESE 11 15 1014.8 - 0.0 - - 10 - - - -
29/02:00am 25.5 SE 8 11 1014.9 - 0.0 - - 10 - - - -
29/01:30am 25.5 SE 6 7 1014.9 - 0.0 - - 10 - - - -
29/01:00am 25.6 SSE 7 10 1014.9 - 0.0 - - 10 - - - -
29/12:30am 25.2 S 6 7 1015.0 - 0.0 - - 10 - - - -
29/12:00am 25.7 S 7 9 1015.1 R 0.0 Fine Mostly clear 30 - - - -
 
Date/Time
CST
Temp
°C
Wind Pressure Rain since
9am
mm
Weather Cloud Vis
km
Sea
Height
m
Swell
Dir  Spd
kts
Gust
kts
hPa Trend Height
m
Period
s
Dir
28/11:30pm 26.0 S 7 9 1015.0 - 0.0 - - 10 - - - -
28/11:00pm 26.5 S 7 9 1015.1 - 0.0 - Partly cloudy 10 - - - -
28/10:30pm 26.6 S 6 8 1015.1 - 0.0 - Partly cloudy 10 - - - -
28/10:00pm 26.4 SE 4 6 1014.6 - 0.0 - Partly cloudy 10 - - - -
28/09:30pm 25.8 ENE 4 5 1014.3 - 0.0 - - 10 - - - -
28/09:00pm 25.9 ENE 5 6 1014.1 R 0.0 Fine Clear 30 - - - -
28/08:30pm 26.5 NE 6 7 1013.9 - 0.0 - - 10 - - - -
28/08:00pm 27.1 NNE 5 6 1013.5 - 0.0 - - 10 - - - -
28/07:30pm 27.6 NNE 6 8 1013.2 - 0.0 - - 10 - - - -
28/07:00pm 28.4 NNE 8 9 1012.9 - 0.0 - - 10 - - - -
28/06:30pm 29.6 NNE 9 13 1012.6 - 0.0 - - 10 - - - -
28/06:00pm 31.5 NE 9 12 1012.2 R 0.0 Fine Mostly clear 30 - - - -
28/05:30pm 32.0 E 10 15 1011.9 - 0.0 - - 10 - - - -
28/05:00pm 32.0 ESE 10 16 1011.7 - 0.0 - Partly cloudy 10 - - - -
28/04:30pm 32.3 ESE 11 16 1011.5 - 0.0 - Partly cloudy 10 - - - -
28/04:00pm 32.2 ESE 12 17 1011.4 - 0.0 - Partly cloudy 10 - - - -
28/03:30pm 33.0 E 14 19 1011.4 - 0.0 - Partly cloudy 10 - - - -
28/03:00pm 32.0 E 14 19 1011.6 R 0.0 Fine Mostly clear 30 - - - -
28/02:30pm 32.4 E 15 19 1011.8 - 0.0 - Partly cloudy 10 - - - -
28/02:00pm 32.7 E 17 23 1012.1 - 0.0 - Partly cloudy 10 - - - -
28/01:30pm 32.2 E 15 26 1012.5 - 0.0 - Partly cloudy 10 - - - -
28/01:00pm 32.1 E 17 22 1013.0 - 0.0 - Mostly clear 10 - - - -
28/12:30pm 31.5 ENE 18 23 1013.4 - 0.0 - Mostly clear 10 - - - -
28/12:00pm 31.7 E 17 26 1013.9 R 0.0 Fine Mostly clear 30 - - - -
28/11:59am 31.1 E 16 26 1013.9 - 0.0 - Mostly clear 10 - - - -
28/11:30am 29.5 ENE 13 18 1014.3 - 0.0 - Mostly clear 10 - - - -
28/11:00am 28.6 E 15 19 1014.7 - 0.0 - Mostly clear 10 - - - -
28/10:30am 28.5 E 18 22 1015.0 - 0.0 - Mostly clear 10 - - - -
28/10:00am 27.7 ESE 18 26 1015.0 - 0.0 - Mostly clear 10 - - - -
28/09:30am 27.2 E 14 19 1014.9 - 0.0 - Mostly clear 10 - - - -
28/09:00am 26.9 E 12 15 1014.7 R 0.0 Fine Clear 30 - - - -
28/08:30am 25.4 E 9 12 1014.4 - 0.0 - - 10 - - - -
28/08:00am 24.5 ESE 9 12 1014.0 - 0.0 - - 10 - - - -
28/07:30am 23.9 E 8 12 1013.8 - 0.0 - - 10 - - - -
28/07:00am 24.0 ESE 8 10 1013.5 - 0.0 - - 10 - - - -
28/06:30am 23.9 E 7 7 1013.1 - 0.0 - - 10 - - - -
28/06:00am 23.9 ESE 6 9 1012.8 F 0.0 Fine Clear 30 - - - -
28/05:30am 24.2 ESE 7 8 1012.6 - 0.0 - - 10 - - - -
28/05:00am 24.2 E 8 9 1012.5 - 0.0 - - 10 - - - -
28/04:30am 23.9 ESE 7 8 1012.4 - 0.0 - - 10 - - - -
28/04:00am 24.0 SE 7 8 1012.4 - 0.0 - - 10 - - - -
28/03:30am 24.2 SE 7 8 1012.5 - 0.0 - - 10 - - - -
28/03:00am 24.3 SE 7 8 1012.9 F 0.0 - - 10 - - - -
28/02:30am 24.5 SE 6 8 1013.1 - 0.0 - - 10 - - - -
28/02:00am 24.7 SE 6 7 1013.3 - 0.0 - - 10 - - - -
28/01:30am 24.0 SE 5 5 1013.5 - 0.0 - - 10 - - - -
28/01:00am 24.2 SSE 4 4 1013.8 - 0.0 - - 10 - - - -
28/12:30am 24.7 SSE 3 4 1013.8 - 0.0 - - 10 - - - -
28/12:00am 25.1 SE 4 5 1013.8 R 0.0 Fine Clear 30 - - - -
 
Date/Time
CST
Temp
°C
Wind Pressure Rain since
9am
mm
Weather Cloud Vis
km
Sea
Height
m
Swell
Dir  Spd
kts
Gust
kts
hPa Trend Height
m
Period
s
Dir
27/11:30pm 25.1 ESE 4 5 1013.9 - 0.0 - - 10 - - - -
27/11:00pm 25.8 SE 4 5 1014.0 - 0.0 - - 10 - - - -
27/10:30pm 26.1 ESE 5 5 1013.9 - 0.0 - - 10 - - - -
27/10:00pm 26.0 E 5 5 1013.5 - 0.0 - - 10 - - - -
27/09:30pm 26.1 ESE 5 6 1013.2 - 0.0 - - 10 - - - -
27/09:00pm 26.4 ESE 5 5 1013.0 R 0.0 Smoke Mostly clear 25 - - - -
27/08:30pm 26.3 ENE 5 6 1012.5 - 0.0 - - 10 - - - -
27/08:00pm 26.7 NE 7 8 1012.1 - 0.0 - - 10 - - - -
27/07:30pm 27.2 ENE 6 7 1011.8 - 0.0 - - 10 - - - -
27/07:00pm 27.6 NE 7 11 1011.4 - 0.0 - - 10 - - - -
27/06:30pm 28.2 NNE 7 10 1011.0 - 0.0 - - 10 - - - -
27/06:00pm 29.0 NNE 10 14 1010.6 R 0.0 Smoke Mostly clear 25 - - - -
27/05:30pm 29.6 NNE 11 15 1010.2 - 0.0 - - 10 - - - -
27/05:00pm 30.6 NNE 9 13 1010.0 - 0.0 - - 10 - - - -
27/04:30pm 30.7 N 9 13 1009.7 - 0.0 - - 10 - - - -
27/04:00pm 31.7 N 10 14 1009.6 - 0.0 - - 10 - - - -
27/03:30pm 31.3 NW 11 15 1009.6 - 0.0 - - 10 - - - -
27/03:00pm 33.9 NW 10 20 1009.8 F 0.0 Fine Mostly clear 30 - - - -
27/02:30pm 33.9 NW 9 11 1010.1 - 0.0 - Partly cloudy 10 - - - -

Other Formats:

Comma delimited format used in spreadsheet applications
http://www.bom.gov.au/fwo/IDD60701/IDD60701.94120.axf

JavaScript Object Notation format (JSON) in row-major order
http://www.bom.gov.au/fwo/IDD60701/IDD60701.94120.json